Jones Brook, Vermont
Current Conditions -  °F | °C
As of 8:51 PM on Friday 28 Nov 2014 (Local Time) from KMPV Reporting Station
Light Snow Light Snow  
Wind Chill: 18°   Ceiling: 3800
Heat Index: 18°   Visibility: 8mi
Dew Point: 15°   Wind: 0mph
Humidity: 88%   Direction: NA
Pressure: 30.15"   Gusts: NA
Location:  44.2861°N, 72.6004°W
Report Text: KMPV 290151Z AUTO 00000KT 8SM -SN FEW025 OVC038 M08/M09 A3015 RMK AO2 SLP231 P0000 T10781094 $
Loading
Personal Weather Stations






























Interactive Weather Map New forecast layout! Learn more

10-Day Weather Forecast

Advertisements
Track Severe Weather on mobile